createdAt,value
2023-02-13T00:00:44.797Z,52.83
2023-02-13T00:01:46.974Z,53.97
2023-02-13T00:02:50.163Z,55.60
2023-02-13T00:03:52.301Z,59.75
2023-02-13T00:04:55.584Z,58.05
2023-02-13T00:05:57.706Z,68.82
2023-02-13T00:07:00.842Z,66.68
2023-02-13T00:08:03.046Z,60.38
2023-02-13T00:09:07.336Z,56.80
2023-02-13T00:10:10.173Z,52.47
2023-02-13T00:11:13.333Z,42.28
2023-02-13T00:12:15.419Z,48.55
2023-02-13T00:13:19.916Z,48.50
2023-02-13T00:14:22.061Z,68.93
2023-02-13T00:15:25.125Z,51.33
2023-02-13T00:16:27.320Z,61.65
2023-02-13T00:17:30.422Z,70.63
2023-02-13T00:18:34.913Z,54.67
2023-02-13T00:19:38.106Z,52.42
2023-02-13T00:20:40.153Z,51.38
2023-02-13T00:21:43.313Z,47.38
2023-02-13T00:22:45.433Z,45.67
2023-02-13T00:23:48.569Z,68.93
2023-02-13T00:24:50.720Z,41.72
2023-02-13T00:25:53.792Z,48.88
2023-02-13T00:26:58.156Z,41.85
2023-02-13T00:28:01.332Z,49.08
2023-02-13T00:29:04.944Z,41.60
2023-02-13T00:30:09.273Z,36.92
2023-02-13T00:31:12.914Z,67.72
2023-02-13T00:32:16.410Z,44.45
2023-02-13T00:33:18.535Z,50.40
2023-02-13T00:34:21.954Z,53.85
2023-02-13T00:35:24.097Z,52.00
2023-02-13T00:36:28.992Z,74.80
2023-02-13T00:37:31.117Z,69.85
2023-02-13T00:38:34.366Z,50.00
2023-02-13T00:39:36.428Z,43.08
2023-02-13T00:40:39.472Z,51.85
2023-02-13T00:41:42.474Z,89.30
2023-02-13T00:42:45.637Z,59.67
2023-02-13T00:43:49.176Z,56.80
2023-02-13T00:44:53.843Z,66.70
2023-02-13T00:45:55.916Z,64.80
2023-02-13T00:47:00.897Z,50.40
2023-02-13T00:48:03.999Z,45.33
2023-02-13T00:49:06.311Z,46.08
2023-02-13T00:50:11.533Z,38.10
2023-02-13T00:51:13.954Z,54.80
2023-02-13T00:52:17.007Z,57.58
2023-02-13T00:53:19.462Z,55.60
2023-02-13T00:54:23.334Z,77.97
2023-02-13T00:55:25.393Z,83.85
2023-02-13T01:01:29.182Z,61.28
2023-02-13T01:02:31.160Z,54.67
2023-02-13T01:03:34.334Z,54.22
2023-02-13T01:04:36.632Z,77.78
2023-02-13T01:05:39.797Z,73.50
2023-02-13T01:06:41.857Z,60.47
2023-02-13T01:07:44.964Z,84.20
2023-02-13T01:08:47.967Z,72.15
2023-02-13T01:09:51.957Z,56.83
2023-02-13T01:10:56.138Z,45.92
2023-02-13T01:11:59.899Z,50.33
2023-02-13T01:13:02.643Z,52.40
2023-02-13T01:14:05.860Z,73.40
2023-02-13T01:15:08.647Z,90.80
2023-02-13T01:16:11.921Z,49.05
2023-02-13T01:17:16.809Z,61.67
2023-02-13T01:18:21.281Z,83.88
2023-02-13T01:19:23.400Z,54.53
2023-02-13T01:20:29.384Z,44.03
2023-02-13T01:21:31.458Z,56.72
2023-02-13T01:22:34.539Z,75.47
2023-02-13T01:26:17.454Z,52.60
2023-02-13T01:27:19.562Z,54.28
2023-02-13T01:28:22.743Z,53.35
2023-02-13T01:29:25.756Z,59.28
2023-02-13T01:30:27.831Z,56.40
2023-02-13T01:31:32.067Z,92.95
2023-02-13T01:32:35.643Z,85.72
2023-02-13T01:33:38.802Z,59.38
2023-02-13T01:34:41.922Z,55.40
2023-02-13T01:35:46.477Z,73.72
2023-02-13T01:36:48.518Z,96.90
2023-02-13T01:37:51.578Z,62.53
2023-02-13T01:38:55.550Z,67.53
2023-02-13T01:40:00.196Z,41.90
2023-02-13T01:41:02.336Z,47.97
2023-02-13T01:42:16.387Z,62.88
2023-02-13T01:43:18.930Z,62.63
2023-02-13T01:44:50.644Z,98.38
2023-02-13T01:45:56.463Z,68.78
2023-02-13T01:47:02.817Z,82.88
2023-02-13T01:48:08.906Z,80.97
2023-02-13T01:49:24.064Z,65.80
2023-02-13T01:50:36.608Z,62.08
2023-02-13T01:51:41.664Z,64.47
2023-02-13T01:52:49.098Z,90.35
2023-02-13T01:53:57.323Z,60.78
2023-02-13T01:54:59.865Z,47.08
2023-02-13T01:56:09.360Z,74.55
2023-02-13T01:57:16.296Z,54.08
2023-02-13T01:58:22.358Z,61.60
2023-02-13T01:59:30.025Z,80.75
2023-02-13T02:00:33.344Z,59.65
2023-02-13T02:01:37.517Z,51.53
2023-02-13T02:02:45.365Z,56.45
2023-02-13T02:03:53.666Z,64.65
2023-02-13T02:04:56.346Z,48.22
2023-02-13T02:06:00.924Z,45.10
2023-02-13T02:07:07.778Z,54.58
2023-02-13T02:08:14.748Z,59.95
2023-02-13T02:09:20.272Z,46.45
2023-02-13T02:10:23.949Z,44.50
2023-02-13T02:11:34.751Z,54.15
2023-02-13T02:12:46.473Z,45.55
2023-02-13T02:13:49.575Z,48.20
2023-02-13T02:15:05.705Z,39.20
2023-02-13T02:16:08.354Z,39.92
2023-02-13T02:17:12.623Z,38.67
2023-02-13T02:18:17.093Z,36.67
2023-02-13T02:19:32.586Z,40.38
2023-02-13T02:20:58.612Z,44.65
2023-02-13T02:22:29.151Z,49.13
2023-02-13T02:24:01.824Z,39.83
2023-02-13T02:25:46.245Z,47.88
2023-02-13T02:27:17.154Z,46.10
2023-02-13T02:29:01.466Z,41.97
2023-02-13T02:30:34.806Z,52.20
2023-02-13T02:32:13.749Z,49.88
2023-02-13T02:33:30.756Z,43.60
2023-02-13T02:34:45.305Z,40.80
2023-02-13T02:35:59.168Z,44.03
2023-02-13T02:37:12.786Z,37.70
2023-02-13T02:38:35.692Z,45.13
2023-02-13T02:39:49.844Z,39.25
2023-02-13T02:41:02.370Z,34.58
2023-02-13T02:42:18.554Z,35.90
2023-02-13T02:43:31.833Z,36.28
2023-02-13T02:44:43.142Z,37.78
2023-02-13T02:45:54.155Z,29.50
2023-02-13T02:47:27.764Z,40.03
2023-02-13T02:48:53.854Z,35.10
2023-02-13T02:50:12.643Z,33.83
2023-02-13T02:51:24.762Z,34.08
2023-02-13T02:52:40.807Z,31.27
2023-02-13T02:53:51.104Z,31.10
2023-02-13T02:55:07.134Z,28.77
2023-02-13T02:56:17.598Z,33.80
2023-02-13T02:57:49.642Z,28.88
2023-02-13T02:59:15.387Z,30.55
2023-02-13T03:00:43.683Z,36.13
2023-02-13T03:02:04.822Z,35.05
2023-02-13T03:03:31.390Z,34.00
2023-02-13T03:04:59.186Z,32.03
2023-02-13T03:06:14.151Z,35.58
2023-02-13T03:07:19.393Z,30.27
2023-02-13T03:08:41.932Z,32.65
2023-02-13T03:10:06.548Z,30.65
2023-02-13T03:11:27.530Z,35.65
2023-02-13T03:12:54.214Z,28.58
2023-02-13T03:14:01.256Z,31.05
2023-02-13T03:15:03.808Z,26.98
2023-02-13T03:16:25.279Z,33.42
2023-02-13T03:17:46.538Z,29.17
2023-02-13T03:19:11.534Z,29.77
2023-02-13T03:20:42.310Z,34.60
2023-02-13T03:22:08.212Z,30.23
2023-02-13T03:23:15.868Z,32.47
2023-02-13T03:24:25.922Z,29.20
2023-02-13T03:25:35.769Z,37.38
2023-02-13T03:26:50.370Z,44.15
2023-02-13T03:28:28.143Z,30.48
2023-02-13T03:30:02.689Z,33.20
2023-02-13T03:31:14.263Z,32.08
2023-02-13T03:32:25.982Z,31.27
2023-02-13T03:33:41.936Z,39.40
2023-02-13T03:35:10.785Z,37.08
2023-02-13T03:36:41.833Z,52.90
2023-02-13T03:37:55.918Z,47.33
2023-02-13T03:39:05.076Z,41.08
2023-02-13T03:40:12.865Z,51.72
2023-02-13T03:41:21.271Z,52.55
2023-02-13T03:42:31.481Z,40.13
2023-02-13T03:43:41.393Z,35.05
2023-02-13T03:45:09.052Z,43.22
2023-02-13T03:46:13.011Z,41.95
2023-02-13T03:47:15.419Z,45.78
2023-02-13T03:48:46.826Z,37.95
2023-02-13T03:50:07.164Z,47.45
2023-02-13T03:51:12.427Z,35.38
2023-02-13T03:52:23.551Z,43.22
2023-02-13T03:53:28.808Z,46.10
2023-02-13T03:54:54.912Z,35.10
2023-02-13T03:56:19.450Z,40.55
2023-02-13T03:57:43.289Z,44.92
2023-02-13T03:59:08.296Z,46.17
2023-02-13T04:00:16.662Z,42.28
2023-02-13T04:01:20.527Z,31.58
2023-02-13T04:02:29.699Z,26.48
2023-02-13T04:03:36.478Z,37.45
2023-02-13T04:04:47.069Z,32.15
2023-02-13T04:05:52.711Z,43.72
2023-02-13T04:06:58.964Z,34.08
2023-02-13T04:08:02.539Z,50.25
2023-02-13T04:09:05.817Z,35.03
2023-02-13T04:10:12.756Z,53.72
2023-02-13T04:11:24.181Z,42.53
2023-02-13T04:12:37.462Z,28.65
2023-02-13T04:13:47.353Z,44.00
2023-02-13T04:14:55.414Z,39.35
2023-02-13T04:16:06.384Z,36.20
2023-02-13T04:17:13.656Z,36.78
2023-02-13T04:18:21.310Z,55.28
2023-02-13T04:19:25.472Z,37.13
2023-02-13T04:20:29.070Z,25.98
2023-02-13T04:21:33.554Z,34.72
2023-02-13T04:22:42.486Z,35.35
2023-02-13T04:23:46.072Z,23.92
2023-02-13T04:24:49.456Z,36.70
2023-02-13T04:25:54.128Z,28.30
2023-02-13T04:26:58.126Z,33.75
2023-02-13T04:28:00.398Z,25.83
2023-02-13T04:29:03.799Z,28.33
2023-02-13T04:30:09.169Z,25.73
2023-02-13T04:31:12.375Z,31.55
2023-02-13T04:32:14.862Z,43.85
2023-02-13T04:33:17.897Z,37.85
2023-02-13T04:34:20.207Z,37.85
2023-02-13T04:35:23.586Z,31.17
2023-02-13T04:36:25.738Z,41.85
2023-02-13T04:37:28.925Z,30.15
2023-02-13T04:38:31.073Z,28.23
2023-02-13T04:39:36.214Z,54.38
2023-02-13T04:40:38.252Z,63.90
2023-02-13T04:41:41.415Z,33.50
2023-02-13T04:42:43.508Z,31.00
2023-02-13T04:43:47.051Z,39.10
2023-02-13T04:44:49.210Z,35.90
2023-02-13T04:45:53.154Z,32.15
2023-02-13T04:46:55.269Z,26.73
2023-02-13T04:47:58.854Z,30.65
2023-02-13T04:49:00.891Z,29.08
2023-02-13T04:50:03.954Z,36.95
2023-02-13T04:51:06.442Z,33.72
2023-02-13T04:52:09.448Z,28.65
2023-02-13T04:53:11.542Z,30.25
2023-02-13T04:54:14.790Z,33.47
2023-02-13T04:55:18.462Z,28.30
2023-02-13T04:56:21.739Z,33.88
2023-02-13T04:57:23.778Z,41.03
2023-02-13T04:58:26.929Z,41.72
2023-02-13T04:59:29.041Z,37.47
2023-02-13T05:00:32.127Z,36.65
2023-02-13T05:01:34.302Z,35.20
2023-02-13T05:02:38.734Z,31.92
2023-02-13T05:03:41.610Z,29.08
2023-02-13T05:04:44.754Z,40.17
2023-02-13T05:05:48.148Z,30.55
2023-02-13T05:06:51.154Z,26.55
2023-02-13T05:07:53.205Z,26.17
2023-02-13T05:08:56.275Z,44.28
2023-02-13T05:09:58.381Z,30.98
2023-02-13T05:11:02.913Z,28.77
2023-02-13T05:12:05.301Z,30.15
2023-02-13T05:13:08.534Z,35.38
2023-02-13T05:14:11.218Z,35.40
2023-02-13T05:15:14.272Z,38.60
2023-02-13T05:16:17.504Z,29.83
2023-02-13T05:17:19.577Z,31.73
2023-02-13T05:18:22.865Z,33.90
2023-02-13T05:19:24.973Z,28.50
2023-02-13T05:20:28.058Z,25.63
2023-02-13T05:21:48.930Z,35.80
2023-02-13T05:23:11.878Z,26.75
2023-02-13T05:24:14.189Z,25.67
2023-02-13T05:25:17.506Z,30.08
2023-02-13T05:26:21.010Z,27.63
2023-02-13T05:27:24.086Z,24.65
2023-02-13T05:28:45.057Z,25.17
2023-02-13T05:29:48.531Z,30.95
2023-02-13T05:30:50.627Z,28.67
2023-02-13T05:31:55.712Z,49.08
2023-02-13T05:32:57.784Z,31.90
2023-02-13T05:34:01.237Z,31.00
2023-02-13T05:35:04.535Z,31.63
2023-02-13T05:36:08.866Z,30.40
2023-02-13T05:37:12.206Z,33.35
2023-02-13T05:38:14.308Z,37.70
2023-02-13T05:39:17.895Z,34.10
2023-02-13T05:40:21.335Z,31.10
2023-02-13T05:41:26.674Z,34.67
2023-02-13T05:42:28.756Z,33.58
2023-02-13T05:43:31.893Z,35.17
2023-02-13T05:44:33.931Z,32.30
2023-02-13T05:45:37.147Z,33.35
2023-02-13T05:46:41.505Z,29.85
2023-02-13T05:47:43.868Z,33.95
2023-02-13T05:48:46.898Z,30.75
2023-02-13T05:49:48.916Z,33.75
2023-02-13T05:50:51.970Z,29.83
2023-02-13T05:51:54.178Z,25.65
2023-02-13T05:52:57.189Z,29.38
2023-02-13T05:53:59.358Z,28.27
2023-02-13T05:55:02.391Z,26.25
2023-02-13T05:56:06.391Z,28.80
2023-02-13T05:57:10.925Z,32.53
2023-02-13T05:58:13.014Z,26.88
2023-02-13T05:59:16.117Z,30.70
2023-02-13T06:00:19.202Z,32.15
2023-02-13T06:01:22.824Z,26.08
2023-02-13T06:02:26.036Z,29.70
2023-02-13T06:03:30.074Z,35.22
2023-02-13T06:04:33.124Z,35.38
2023-02-13T06:05:35.205Z,34.08
2023-02-13T06:06:38.319Z,29.85
2023-02-13T06:07:40.324Z,29.35
2023-02-13T06:08:43.651Z,31.15
2023-02-13T06:09:45.738Z,39.80
2023-02-13T06:10:49.178Z,34.33
2023-02-13T06:11:52.326Z,38.45
2023-02-13T06:12:55.774Z,32.95
2023-02-13T06:13:58.811Z,33.63
2023-02-13T06:15:00.860Z,27.98
2023-02-13T06:16:03.967Z,30.38
2023-02-13T06:17:06.055Z,31.05
2023-02-13T06:18:09.489Z,33.40
2023-02-13T06:19:11.655Z,33.97
2023-02-13T06:20:14.818Z,35.30
2023-02-13T06:21:17.898Z,34.97
2023-02-13T06:22:19.967Z,29.27
2023-02-13T06:23:22.963Z,35.72
2023-02-13T06:24:25.061Z,33.05
2023-02-13T06:25:28.470Z,32.25
2023-02-13T06:26:30.750Z,27.70
2023-02-13T06:27:33.716Z,29.52
2023-02-13T06:28:37.456Z,29.55
2023-02-13T06:29:40.656Z,35.40
2023-02-13T06:30:42.737Z,32.60
2023-02-13T06:31:45.891Z,33.53
2023-02-13T06:32:48.754Z,28.23
2023-02-13T06:33:52.051Z,34.08
2023-02-13T06:34:54.190Z,30.73
2023-02-13T06:35:57.297Z,30.27
2023-02-13T06:36:59.354Z,31.33
2023-02-13T06:38:02.488Z,31.30
2023-02-13T06:39:05.792Z,31.70
2023-02-13T06:40:09.035Z,37.60
2023-02-13T06:41:12.061Z,31.95
2023-02-13T06:42:14.284Z,32.65
2023-02-13T06:43:18.273Z,35.17
2023-02-13T06:44:22.947Z,31.15
2023-02-13T06:45:24.991Z,35.78
2023-02-13T06:46:28.039Z,38.47
2023-02-13T06:47:30.156Z,30.50
2023-02-13T06:48:33.245Z,31.63
2023-02-13T06:49:35.496Z,29.42
2023-02-13T06:50:38.569Z,33.50
2023-02-13T06:51:41.711Z,31.35
2023-02-13T06:52:46.939Z,32.92
2023-02-13T06:53:50.064Z,31.83
2023-02-13T06:54:52.358Z,28.38
2023-02-13T06:55:56.594Z,36.92
2023-02-13T06:56:59.652Z,39.88
2023-02-13T06:58:01.762Z,32.08
2023-02-13T06:59:04.940Z,33.47
2023-02-13T07:00:13.247Z,35.63
2023-02-13T07:01:16.466Z,34.92
2023-02-13T07:02:18.930Z,29.70
2023-02-13T07:03:22.071Z,32.67
2023-02-13T07:04:25.501Z,31.95
2023-02-13T07:05:27.629Z,28.35
2023-02-13T07:06:30.923Z,33.40
2023-02-13T07:07:34.296Z,28.20
2023-02-13T07:08:37.401Z,33.30
2023-02-13T07:09:41.181Z,33.83
2023-02-13T07:10:44.481Z,34.88
2023-02-13T07:11:46.501Z,31.58
2023-02-13T07:13:03.545Z,31.40
2023-02-13T07:14:08.725Z,30.48
2023-02-13T07:15:12.341Z,31.20
2023-02-13T07:16:15.645Z,31.58
2023-02-13T07:17:17.753Z,26.80
2023-02-13T07:18:20.939Z,30.70
2023-02-13T07:19:23.110Z,30.60
2023-02-13T07:20:26.934Z,32.33
2023-02-13T07:21:30.092Z,35.15
2023-02-13T07:22:32.871Z,42.65
2023-02-13T07:23:36.024Z,36.95
2023-02-13T07:24:39.530Z,35.05
2023-02-13T07:25:42.627Z,37.50
2023-02-13T07:26:44.782Z,31.42
2023-02-13T07:27:47.963Z,34.13
2023-02-13T07:28:54.759Z,31.85
2023-02-13T07:30:02.503Z,32.72
2023-02-13T07:31:07.588Z,32.55
2023-02-13T07:32:10.226Z,31.38
2023-02-13T07:33:13.745Z,34.05
2023-02-13T07:34:16.181Z,29.80
2023-02-13T07:35:19.593Z,30.05
2023-02-13T07:36:21.711Z,32.42
2023-02-13T07:37:24.867Z,32.00
2023-02-13T07:38:26.932Z,33.08
2023-02-13T07:39:31.667Z,34.38
2023-02-13T07:40:34.753Z,35.72
2023-02-13T07:41:37.935Z,31.63
2023-02-13T07:42:43.397Z,30.63
2023-02-13T07:43:46.587Z,30.73
2023-02-13T07:44:49.778Z,30.67
2023-02-13T07:45:55.592Z,32.42
2023-02-13T07:47:01.124Z,36.15
2023-02-13T07:48:04.435Z,34.13
2023-02-13T07:49:06.461Z,37.88
2023-02-13T07:50:10.129Z,34.67
2023-02-13T07:51:13.491Z,27.90
2023-02-13T07:52:16.731Z,37.03
2023-02-13T07:53:18.883Z,37.75
2023-02-13T07:54:22.156Z,32.42
2023-02-13T07:55:25.490Z,34.13
2023-02-13T07:56:28.575Z,32.45
2023-02-13T07:57:32.577Z,34.95
2023-02-13T07:58:35.442Z,30.55
2023-02-13T07:59:38.569Z,30.40
2023-02-13T08:00:41.685Z,30.60
2023-02-13T08:01:44.844Z,25.73
2023-02-13T08:02:49.841Z,26.83
2023-02-13T08:03:52.025Z,30.30
2023-02-13T08:04:55.138Z,32.03
2023-02-13T08:05:57.490Z,31.35
2023-02-13T08:07:00.751Z,29.33
2023-02-13T08:08:02.836Z,30.17
2023-02-13T08:09:23.252Z,33.58
2023-02-13T08:10:44.255Z,32.20
2023-02-13T08:11:56.053Z,27.45
2023-02-13T08:12:59.401Z,37.40
2023-02-13T08:14:02.500Z,31.10
2023-02-13T08:15:05.573Z,26.40
2023-02-13T08:16:09.179Z,28.95
2023-02-13T08:17:11.765Z,33.33
2023-02-13T08:18:18.818Z,33.00
2023-02-13T08:19:22.687Z,32.75
2023-02-13T08:20:26.025Z,31.63
2023-02-13T08:21:28.091Z,35.55
2023-02-13T08:22:31.396Z,34.83
2023-02-13T08:23:34.663Z,33.47
2023-02-13T08:24:37.793Z,27.02
2023-02-13T08:25:41.553Z,31.45
2023-02-13T08:26:43.622Z,33.67
2023-02-13T08:27:46.813Z,31.85
2023-02-13T08:28:49.910Z,31.60
2023-02-13T08:29:53.112Z,36.95
2023-02-13T08:30:56.222Z,34.30
2023-02-13T08:31:59.287Z,36.35
2023-02-13T08:33:02.489Z,36.88
2023-02-13T08:34:07.014Z,33.33
2023-02-13T08:35:09.068Z,35.67
2023-02-13T08:36:12.278Z,36.20
2023-02-13T08:37:15.470Z,41.28
2023-02-13T08:38:17.626Z,36.78
2023-02-13T08:39:20.773Z,38.92
2023-02-13T08:40:25.447Z,39.55
2023-02-13T08:41:29.143Z,40.03
2023-02-13T08:42:32.237Z,40.20
2023-02-13T08:43:35.324Z,40.10
2023-02-13T08:44:41.043Z,37.38
2023-02-13T08:45:44.372Z,37.70
2023-02-13T08:46:47.487Z,35.55
2023-02-13T08:47:50.651Z,38.40
2023-02-13T08:48:53.735Z,39.20
2023-02-13T08:49:58.197Z,39.78
2023-02-13T08:51:01.408Z,39.28
2023-02-13T08:52:05.886Z,37.13
2023-02-13T08:53:09.138Z,40.20
2023-02-13T08:54:12.324Z,34.10
2023-02-13T08:55:14.586Z,31.42
2023-02-13T08:56:18.530Z,39.30
2023-02-13T08:57:21.193Z,36.30
2023-02-13T08:58:25.320Z,30.80
2023-02-13T08:59:28.448Z,38.70
2023-02-13T09:00:30.892Z,41.33
2023-02-13T09:01:34.058Z,34.95
2023-02-13T09:02:37.498Z,34.05
2023-02-13T09:03:40.828Z,34.20
2023-02-13T09:04:43.937Z,30.60
2023-02-13T09:05:48.609Z,35.25
2023-02-13T09:06:51.781Z,35.33
2023-02-13T09:07:54.989Z,36.53
2023-02-13T09:09:01.269Z,34.67
2023-02-13T09:10:03.480Z,32.55
2023-02-13T09:11:07.699Z,37.00
2023-02-13T09:12:11.102Z,36.42
2023-02-13T09:13:14.457Z,44.70
2023-02-13T09:14:17.679Z,39.38
2023-02-13T09:15:20.844Z,37.97
2023-02-13T09:16:24.397Z,38.92
2023-02-13T09:17:27.558Z,39.67
2023-02-13T09:18:29.708Z,31.77
2023-02-13T09:19:32.847Z,35.15
2023-02-13T09:20:36.418Z,34.67
2023-02-13T09:21:45.037Z,32.20
2023-02-13T09:22:47.273Z,36.50
2023-02-13T09:23:55.242Z,36.03
2023-02-13T09:24:59.217Z,33.28
2023-02-13T09:26:03.237Z,32.17
2023-02-13T09:27:08.014Z,37.08
2023-02-13T09:28:11.342Z,38.03
2023-02-13T09:29:14.552Z,34.95
2023-02-13T09:30:24.767Z,37.05
2023-02-13T09:31:29.599Z,34.00
2023-02-13T09:32:32.044Z,32.88
2023-02-13T09:33:35.257Z,38.05
2023-02-13T09:34:38.413Z,34.58
2023-02-13T09:35:42.289Z,33.40
2023-02-13T09:36:46.867Z,30.15
2023-02-13T09:37:49.174Z,32.72
2023-02-13T09:38:54.789Z,29.65
2023-02-13T09:39:57.959Z,32.28
2023-02-13T09:41:03.824Z,31.83
2023-02-13T09:42:14.645Z,34.03
2023-02-13T09:43:29.050Z,33.88
2023-02-13T09:44:39.137Z,33.08
2023-02-13T09:45:43.374Z,38.97
2023-02-13T09:46:47.241Z,32.92
2023-02-13T09:47:51.448Z,32.92
2023-02-13T09:48:57.874Z,31.73
2023-02-13T09:50:02.995Z,34.63
2023-02-13T09:51:06.900Z,32.28
2023-02-13T09:52:11.854Z,35.47
2023-02-13T09:53:22.862Z,33.67
2023-02-13T09:54:26.583Z,38.22
2023-02-13T09:55:38.341Z,34.38
2023-02-13T09:56:50.666Z,34.67
2023-02-13T09:58:00.138Z,35.25
2023-02-13T09:59:11.199Z,32.63
2023-02-13T10:00:19.945Z,34.50
2023-02-13T10:01:30.485Z,33.25
2023-02-13T10:02:55.486Z,33.72
2023-02-13T10:04:17.035Z,32.17
2023-02-13T10:05:33.692Z,31.90
2023-02-13T10:06:50.002Z,36.17
2023-02-13T10:08:04.542Z,38.28
2023-02-13T10:09:14.285Z,33.67
2023-02-13T10:10:28.316Z,32.47
2023-02-13T10:11:46.608Z,33.50
2023-02-13T10:13:03.229Z,34.70
2023-02-13T10:14:12.974Z,31.58
2023-02-13T10:15:25.529Z,34.15
2023-02-13T10:16:31.662Z,35.15
2023-02-13T10:17:38.681Z,36.20
2023-02-13T10:18:49.414Z,38.25
2023-02-13T10:19:57.659Z,34.78
2023-02-13T10:21:02.433Z,37.10
2023-02-13T10:22:09.521Z,37.40
2023-02-13T10:23:25.077Z,36.83
2023-02-13T10:24:35.143Z,32.65
2023-02-13T10:25:47.513Z,32.92
2023-02-13T10:26:50.676Z,40.22
2023-02-13T10:27:56.466Z,39.03
2023-02-13T10:29:23.338Z,36.90
2023-02-13T10:30:31.642Z,35.63
2023-02-13T10:31:35.647Z,36.15
2023-02-13T10:32:44.602Z,33.88
2023-02-13T10:33:52.158Z,32.88
2023-02-13T10:34:58.842Z,30.90
2023-02-13T10:36:04.314Z,31.92
2023-02-13T10:37:13.776Z,32.35
2023-02-13T10:38:20.809Z,32.90
2023-02-13T10:39:26.357Z,34.08
2023-02-13T10:40:34.362Z,35.47
2023-02-13T10:41:47.699Z,37.17
2023-02-13T10:43:02.032Z,37.42
2023-02-13T10:44:17.469Z,38.22
2023-02-13T10:45:34.231Z,33.83
2023-02-13T10:46:46.548Z,35.03
2023-02-13T10:48:03.575Z,34.20
2023-02-13T10:49:24.420Z,33.20
2023-02-13T10:50:32.151Z,31.25
2023-02-13T10:51:40.494Z,38.30
2023-02-13T10:52:53.274Z,35.47
2023-02-13T10:54:15.513Z,34.22
2023-02-13T10:55:40.510Z,33.60
2023-02-13T10:56:49.629Z,32.85
2023-02-13T10:58:08.495Z,37.47
2023-02-13T10:59:37.129Z,34.60
2023-02-13T11:00:47.460Z,32.92
2023-02-13T11:01:56.238Z,35.20
2023-02-13T11:03:00.385Z,35.05
2023-02-13T11:04:07.759Z,34.80
2023-02-13T11:05:18.049Z,37.38
2023-02-13T11:06:21.234Z,35.55
2023-02-13T11:07:26.791Z,32.15
2023-02-13T11:08:33.841Z,34.85
2023-02-13T11:09:44.182Z,37.38
2023-02-13T11:10:47.210Z,35.75
2023-02-13T11:11:51.595Z,32.63
2023-02-13T11:12:54.586Z,36.20
2023-02-13T11:14:19.646Z,34.72
2023-02-13T11:15:26.739Z,35.63
2023-02-13T11:16:37.612Z,32.25
2023-02-13T11:17:43.153Z,35.85
2023-02-13T11:18:51.332Z,32.25
2023-02-13T11:19:56.689Z,33.85
2023-02-13T11:21:02.542Z,32.20
2023-02-13T11:22:09.112Z,36.80
2023-02-13T11:23:35.406Z,35.47
2023-02-13T11:24:42.654Z,32.65
2023-02-13T11:25:57.123Z,34.10
2023-02-13T11:27:05.890Z,32.42
2023-02-13T11:28:11.102Z,31.38
2023-02-13T11:29:21.677Z,30.05
2023-02-13T11:30:32.699Z,33.08
2023-02-13T11:31:37.311Z,35.03
2023-02-13T11:32:40.518Z,35.13
2023-02-13T11:33:43.044Z,32.22
2023-02-13T11:34:47.400Z,32.42
2023-02-13T11:35:49.653Z,31.52
2023-02-13T11:36:54.201Z,35.28
2023-02-13T11:38:14.654Z,35.92
2023-02-13T11:39:20.996Z,34.08
2023-02-13T11:40:33.049Z,27.40
2023-02-13T11:41:41.847Z,31.35
2023-02-13T11:42:46.459Z,30.00
2023-02-13T11:43:52.838Z,29.25
2023-02-13T11:45:00.304Z,30.65
2023-02-13T11:46:05.460Z,34.40
2023-02-13T11:47:16.187Z,31.00
2023-02-13T11:48:23.581Z,31.00
2023-02-13T11:49:29.409Z,32.92
2023-02-13T11:50:35.781Z,30.60
2023-02-13T11:51:44.706Z,25.67
2023-02-13T11:52:56.236Z,26.73
2023-02-13T11:54:01.108Z,28.85
2023-02-13T11:55:07.945Z,32.22
2023-02-13T11:56:14.338Z,29.20
2023-02-13T11:57:22.078Z,29.63
2023-02-13T11:58:30.790Z,28.40
2023-02-13T11:59:40.882Z,29.67
2023-02-13T12:00:45.007Z,27.83
2023-02-13T12:01:50.359Z,29.55
2023-02-13T12:02:53.720Z,33.05
2023-02-13T12:04:05.910Z,32.58
2023-02-13T12:05:17.901Z,32.90
2023-02-13T12:06:20.866Z,29.02
2023-02-13T12:07:27.379Z,30.33
2023-02-13T12:08:30.649Z,27.52
2023-02-13T12:09:34.010Z,28.17
2023-02-13T12:10:39.612Z,29.40
2023-02-13T12:11:48.475Z,32.28
2023-02-13T12:12:56.792Z,29.13
2023-02-13T12:13:59.139Z,30.85
2023-02-13T12:15:05.227Z,28.52
2023-02-13T12:16:14.407Z,30.85
2023-02-13T12:17:31.415Z,32.03
2023-02-13T12:18:38.577Z,29.58
2023-02-13T12:19:44.338Z,32.55
2023-02-13T12:20:55.192Z,30.02
2023-02-13T12:22:16.134Z,30.65
2023-02-13T12:23:30.402Z,31.25
2023-02-13T12:24:56.696Z,37.75
2023-02-13T12:26:16.244Z,26.75
2023-02-13T12:27:28.044Z,29.17
2023-02-13T12:28:47.085Z,30.85
2023-02-13T12:30:08.702Z,28.98
2023-02-13T12:31:35.860Z,27.52
2023-02-13T12:32:50.678Z,30.50
2023-02-13T12:34:36.367Z,28.25
2023-02-13T12:35:52.798Z,29.20
2023-02-13T12:37:14.752Z,28.00
2023-02-13T12:38:33.158Z,32.28
2023-02-13T12:39:38.626Z,29.83
2023-02-13T12:40:58.451Z,26.85
2023-02-13T12:42:34.991Z,31.27
2023-02-13T12:44:11.663Z,28.70
2023-02-13T12:45:27.498Z,29.48
2023-02-13T12:46:38.191Z,28.65
2023-02-13T12:47:55.564Z,26.27
2023-02-13T12:49:06.457Z,26.58
2023-02-13T12:50:35.409Z,26.42
2023-02-13T12:51:49.481Z,26.60
2023-02-13T12:53:24.974Z,29.50
2023-02-13T12:54:48.521Z,26.25
2023-02-13T12:56:03.098Z,28.52
2023-02-13T12:57:20.262Z,30.33
2023-02-13T12:59:01.352Z,28.45
2023-02-13T13:00:20.063Z,25.05
2023-02-13T13:01:36.307Z,30.98
2023-02-13T13:03:02.635Z,27.38
2023-02-13T13:04:15.505Z,29.15
2023-02-13T13:05:29.999Z,33.22
2023-02-13T13:06:46.092Z,29.40
2023-02-13T13:08:00.110Z,30.65
2023-02-13T13:09:30.214Z,27.58
2023-02-13T13:10:44.217Z,27.02
2023-02-13T13:12:05.391Z,26.38
2023-02-13T13:13:20.932Z,26.98
2023-02-13T13:14:34.312Z,28.48
2023-02-13T13:15:45.163Z,28.45
2023-02-13T13:16:56.638Z,26.30
2023-02-13T13:18:13.974Z,26.73
2023-02-13T13:19:28.912Z,27.73
2023-02-13T13:20:49.067Z,31.35
2023-02-13T13:22:02.143Z,25.38
2023-02-13T13:23:09.802Z,26.42
2023-02-13T13:24:30.100Z,25.75
2023-02-13T13:25:41.721Z,34.45
2023-02-13T13:26:49.732Z,26.98
2023-02-13T13:27:57.117Z,26.10
2023-02-13T13:29:02.615Z,27.45
2023-02-13T13:30:17.501Z,28.52
2023-02-13T13:31:24.300Z,29.20
2023-02-13T13:32:29.992Z,27.75
2023-02-13T13:33:33.997Z,27.27
2023-02-13T13:34:40.157Z,27.20
2023-02-13T13:35:47.890Z,26.65
2023-02-13T13:36:55.592Z,25.73
2023-02-13T13:38:06.617Z,29.30
2023-02-13T13:39:26.597Z,26.30
2023-02-13T13:40:40.949Z,26.55
2023-02-13T13:41:51.956Z,24.05
2023-02-13T13:43:00.397Z,25.98
2023-02-13T13:44:20.597Z,26.27
2023-02-13T13:45:35.716Z,25.02
2023-02-13T13:46:49.984Z,25.40
2023-02-13T13:48:07.734Z,25.35
2023-02-13T13:49:25.777Z,27.85
2023-02-13T13:50:31.747Z,26.25
2023-02-13T13:51:35.038Z,23.27
2023-02-13T13:52:38.372Z,25.27
2023-02-13T13:54:24.739Z,27.02
2023-02-13T13:56:05.870Z,22.15
2023-02-13T13:57:15.113Z,26.27
2023-02-13T13:58:22.450Z,26.58
2023-02-13T14:00:00.694Z,26.05
2023-02-13T14:01:25.200Z,23.88
2023-02-13T14:02:38.559Z,29.70
2023-02-13T14:03:43.527Z,30.77
2023-02-13T14:05:04.016Z,28.75
2023-02-13T14:06:09.871Z,24.00
2023-02-13T14:07:23.780Z,26.42
2023-02-13T14:09:06.790Z,25.58
2023-02-13T14:10:49.365Z,28.05
2023-02-13T14:11:52.599Z,28.08
2023-02-13T14:13:03.084Z,28.17
2023-02-13T14:14:50.802Z,35.33
2023-02-13T14:15:55.123Z,30.23
2023-02-13T14:16:59.314Z,28.52
2023-02-13T14:18:04.123Z,27.35
2023-02-13T14:19:22.477Z,24.70
2023-02-13T14:20:37.447Z,25.40
2023-02-13T14:21:40.672Z,27.20
2023-02-13T14:22:42.935Z,31.40
2023-02-13T14:23:50.381Z,26.63
2023-02-13T14:24:54.698Z,23.98
2023-02-13T14:26:20.428Z,24.65
2023-02-13T14:27:25.973Z,25.83
2023-02-13T14:28:29.484Z,24.48
2023-02-13T14:29:34.681Z,28.63
2023-02-13T14:30:39.779Z,24.75
2023-02-13T14:31:45.899Z,25.98
2023-02-13T14:32:49.197Z,24.80
2023-02-13T14:33:57.865Z,28.20
2023-02-13T14:35:04.102Z,28.88
2023-02-13T14:36:09.664Z,26.52
2023-02-13T14:37:29.971Z,29.25
2023-02-13T14:38:33.722Z,22.55
2023-02-13T14:39:37.067Z,28.77
2023-02-13T14:40:47.911Z,27.23
2023-02-13T14:42:01.958Z,25.50
2023-02-13T14:43:30.922Z,29.08
2023-02-13T14:44:40.160Z,27.52
2023-02-13T14:45:50.136Z,27.85
2023-02-13T14:46:54.972Z,27.85